^^
Station Historical Data
Daily Summary for March 26, 2020 Units:  Both    English   Metric
« Previous Day
Next Day »
Daily Weekly Monthly Yearly Custom
  High: Low: Average:
Temperature: 48.9 °F /  9.4 °C 21.9 °F /  -5.6 °C 33.5 °F /  0.8 °C
Dew Point: 32.1 °F /  0.1 °C 18.4 °F /  -7.6 °C 26.4 °F /  -3.1 °C
Humidity: 92% 45% 77%
Wind Speed: 14.0mph /  22.5km/h - 5.7mph /  9.2km/h
Wind Gust: 17.0mph /  27.4km/h - -
Wind- - South
Pressure: 29.90 in /  1012.4 hPa 29.75 in /  1007.3 hPa -
Precipitation: 0.00 in /  0 mm    
Historical Graphs
 
 
Tabular Data for March 26, 2020
Time Temperature Dew Point Pressure Wind Wind Speed Wind Gust Humidity Rainfall Rate (Hourly) solar Conditions
00:00 26.5 °F /  -3.1 °C 20.3 °F /  -6.5 °C 29.90in /  1012.4hPa SE 5.0mph /  8km/h 6.0mph /  9.7km/h 77% 0.00in /  0mm 0.00 W/m2
00:05 26.2 °F /  -3.2 °C 20.3 °F /  -6.5 °C 29.90in /  1012.4hPa SE 3.0mph /  4.8km/h 7.0mph /  11.3km/h 78% 0.00in /  0mm 0.00 W/m2
00:10 26.2 °F /  -3.2 °C 20.3 °F /  -6.5 °C 29.90in /  1012.4hPa SE 3.0mph /  4.8km/h 7.0mph /  11.3km/h 78% 0.00in /  0mm 0.00 W/m2
00:15 26.2 °F /  -3.2 °C 20.3 °F /  -6.5 °C 29.90in /  1012.4hPa SE 5.0mph /  8km/h 7.0mph /  11.3km/h 78% 0.00in /  0mm 0.00 W/m2
00:20 26.1 °F /  -3.3 °C 20.2 °F /  -6.6 °C 29.90in /  1012.4hPa SE 4.0mph /  6.4km/h 7.0mph /  11.3km/h 78% 0.00in /  0mm 0.00 W/m2
00:25 26.2 °F /  -3.2 °C 20.3 °F /  -6.5 °C 29.90in /  1012.4hPa SE 5.0mph /  8km/h 5.0mph /  8km/h 78% 0.00in /  0mm 0.00 W/m2
00:30 26.3 °F /  -3.2 °C 20.4 °F /  -6.4 °C 29.90in /  1012.4hPa SE 5.0mph /  8km/h 7.0mph /  11.3km/h 78% 0.00in /  0mm 0.00 W/m2
00:35 26.3 °F /  -3.2 °C 20.4 °F /  -6.4 °C 29.90in /  1012.4hPa ESE 4.0mph /  6.4km/h 7.0mph /  11.3km/h 78% 0.00in /  0mm 0.00 W/m2
00:40 26.2 °F /  -3.2 °C 20.3 °F /  -6.5 °C 29.90in /  1012.4hPa SE 4.0mph /  6.4km/h 6.0mph /  9.7km/h 78% 0.00in /  0mm 0.00 W/m2
00:45 26.0 °F /  -3.3 °C 20.1 °F /  -6.6 °C 29.90in /  1012.4hPa SE 5.0mph /  8km/h 6.0mph /  9.7km/h 78% 0.00in /  0mm 0.00 W/m2
00:50 25.8 °F /  -3.4 °C 20.2 °F /  -6.6 °C 29.90in /  1012.4hPa SE 5.0mph /  8km/h 6.0mph /  9.7km/h 79% 0.00in /  0mm 0.00 W/m2
00:55 25.5 °F /  -3.6 °C 19.9 °F /  -6.7 °C 29.89in /  1012.1hPa SE 5.0mph /  8km/h 5.0mph /  8km/h 79% 0.00in /  0mm 0.00 W/m2
01:00 25.2 °F /  -3.8 °C 19.6 °F /  -6.9 °C 29.89in /  1012.1hPa SE 7.0mph /  11.3km/h 7.0mph /  11.3km/h 79% 0.00in /  0mm 0.00 W/m2
01:05 25.1 °F /  -3.8 °C 19.8 °F /  -6.8 °C 29.89in /  1012.1hPa SE 5.0mph /  8km/h 7.0mph /  11.3km/h 80% 0.00in /  0mm 0.00 W/m2
01:10 24.9 °F /  -3.9 °C 19.3 °F /  -7.1 °C 29.88in /  1011.7hPa SE 5.0mph /  8km/h 7.0mph /  11.3km/h 79% 0.00in /  0mm 0.00 W/m2
01:15 24.9 °F /  -3.9 °C 19.6 °F /  -6.9 °C 29.88in /  1011.7hPa SE 3.0mph /  4.8km/h 7.0mph /  11.3km/h 80% 0.00in /  0mm 0.00 W/m2
01:20 24.8 °F /  -4 °C 19.5 °F /  -6.9 °C 29.89in /  1012.1hPa SE 3.0mph /  4.8km/h 7.0mph /  11.3km/h 80% 0.00in /  0mm 0.00 W/m2
01:25 24.8 °F /  -4 °C 19.5 °F /  -6.9 °C 29.89in /  1012.1hPa SE 5.0mph /  8km/h 7.0mph /  11.3km/h 80% 0.00in /  0mm 0.00 W/m2
01:30 24.6 °F /  -4.1 °C 19.3 °F /  -7.1 °C 29.89in /  1012.1hPa SE 4.0mph /  6.4km/h 7.0mph /  11.3km/h 80% 0.00in /  0mm 0.00 W/m2
01:35 24.5 °F /  -4.2 °C 19.2 °F /  -7.1 °C 29.89in /  1012.1hPa SE 4.0mph /  6.4km/h 7.0mph /  11.3km/h 80% 0.00in /  0mm 0.00 W/m2
01:40 24.4 °F /  -4.2 °C 19.4 °F /  -7 °C 29.89in /  1012.1hPa SE 4.0mph /  6.4km/h 7.0mph /  11.3km/h 81% 0.00in /  0mm 0.00 W/m2
01:45 24.4 °F /  -4.2 °C 19.4 °F /  -7 °C 29.89in /  1012.1hPa SE 5.0mph /  8km/h 5.0mph /  8km/h 81% 0.00in /  0mm 0.00 W/m2
01:50 24.3 °F /  -4.3 °C 19.3 °F /  -7.1 °C 29.88in /  1011.7hPa SE 5.0mph /  8km/h 7.0mph /  11.3km/h 81% 0.00in /  0mm 0.00 W/m2
01:55 24.4 °F /  -4.2 °C 19.7 °F /  -6.8 °C 29.88in /  1011.7hPa SE 5.0mph /  8km/h 7.0mph /  11.3km/h 82% 0.00in /  0mm 0.00 W/m2
02:00 24.6 °F /  -4.1 °C 19.9 °F /  -6.7 °C 29.88in /  1011.7hPa SE 4.0mph /  6.4km/h 7.0mph /  11.3km/h 82% 0.00in /  0mm 0.00 W/m2
02:05 24.7 °F /  -4.1 °C 20.0 °F /  -6.7 °C 29.88in /  1011.7hPa SE 4.0mph /  6.4km/h 5.0mph /  8km/h 82% 0.00in /  0mm 0.00 W/m2
02:10 24.7 °F /  -4.1 °C 19.7 °F /  -6.8 °C 29.88in /  1011.7hPa ESE 4.0mph /  6.4km/h 5.0mph /  8km/h 81% 0.00in /  0mm 0.00 W/m2
02:15 24.7 °F /  -4.1 °C 19.7 °F /  -6.8 °C 29.87in /  1011.4hPa ESE 4.0mph /  6.4km/h 5.0mph /  8km/h 81% 0.00in /  0mm 0.00 W/m2
02:20 24.6 °F /  -4.1 °C 19.6 °F /  -6.9 °C 29.87in /  1011.4hPa ESE 4.0mph /  6.4km/h 6.0mph /  9.7km/h 81% 0.00in /  0mm 0.00 W/m2
02:25 24.5 °F /  -4.2 °C 19.8 °F /  -6.8 °C 29.87in /  1011.4hPa ESE 4.0mph /  6.4km/h 6.0mph /  9.7km/h 82% 0.00in /  0mm 0.00 W/m2
02:30 24.5 °F /  -4.2 °C 19.8 °F /  -6.8 °C 29.87in /  1011.4hPa ESE 3.0mph /  4.8km/h 6.0mph /  9.7km/h 82% 0.00in /  0mm 0.00 W/m2
02:35 24.4 °F /  -4.2 °C 19.7 °F /  -6.8 °C 29.87in /  1011.4hPa ESE 3.0mph /  4.8km/h 4.0mph /  6.4km/h 82% 0.00in /  0mm 0.00 W/m2
02:40 24.4 °F /  -4.2 °C 20.0 °F /  -6.7 °C 29.86in /  1011.1hPa ESE 3.0mph /  4.8km/h 4.0mph /  6.4km/h 83% 0.00in /  0mm 0.00 W/m2
02:45 24.5 °F /  -4.2 °C 20.1 °F /  -6.6 °C 29.86in /  1011.1hPa ESE 4.0mph /  6.4km/h 4.0mph /  6.4km/h 83% 0.00in /  0mm 0.00 W/m2
02:50 24.5 °F /  -4.2 °C 19.8 °F /  -6.8 °C 29.86in /  1011.1hPa ESE 2.0mph /  3.2km/h 4.0mph /  6.4km/h 82% 0.00in /  0mm 0.00 W/m2
02:55 24.5 °F /  -4.2 °C 19.8 °F /  -6.8 °C 29.86in /  1011.1hPa ESE 3.0mph /  4.8km/h 4.0mph /  6.4km/h 82% 0.00in /  0mm 0.00 W/m2
03:00 24.5 °F /  -4.2 °C 20.1 °F /  -6.6 °C 29.86in /  1011.1hPa ESE 2.0mph /  3.2km/h 4.0mph /  6.4km/h 83% 0.00in /  0mm 0.00 W/m2
03:05 24.4 °F /  -4.2 °C 20.0 °F /  -6.7 °C 29.86in /  1011.1hPa ESE 3.0mph /  4.8km/h 4.0mph /  6.4km/h 83% 0.00in /  0mm 0.00 W/m2
03:10 24.3 °F /  -4.3 °C 19.9 °F /  -6.7 °C 29.86in /  1011.1hPa ESE 3.0mph /  4.8km/h 4.0mph /  6.4km/h 83% 0.00in /  0mm 0.00 W/m2
03:15 24.3 °F /  -4.3 °C 19.9 °F /  -6.7 °C 29.86in /  1011.1hPa ESE 3.0mph /  4.8km/h 6.0mph /  9.7km/h 83% 0.00in /  0mm 0.00 W/m2
03:20 24.1 °F /  -4.4 °C 19.7 °F /  -6.8 °C 29.86in /  1011.1hPa ESE 4.0mph /  6.4km/h 6.0mph /  9.7km/h 83% 0.00in /  0mm 0.00 W/m2
03:25 24.1 °F /  -4.4 °C 20.0 °F /  -6.7 °C 29.86in /  1011.1hPa SE 4.0mph /  6.4km/h 6.0mph /  9.7km/h 84% 0.00in /  0mm 0.00 W/m2
03:30 24.2 °F /  -4.3 °C 20.1 °F /  -6.6 °C 29.85in /  1010.7hPa ESE 3.0mph /  4.8km/h 5.0mph /  8km/h 84% 0.00in /  0mm 0.00 W/m2
03:35 24.1 °F /  -4.4 °C 19.7 °F /  -6.8 °C 29.85in /  1010.7hPa ESE 3.0mph /  4.8km/h 6.0mph /  9.7km/h 83% 0.00in /  0mm 0.00 W/m2
03:40 24.0 °F /  -4.4 °C 19.9 °F /  -6.7 °C 29.85in /  1010.7hPa ESE 4.0mph /  6.4km/h 6.0mph /  9.7km/h 84% 0.00in /  0mm 0.00 W/m2
03:45 24.1 °F /  -4.4 °C 20.0 °F /  -6.7 °C 29.85in /  1010.7hPa ESE 4.0mph /  6.4km/h 4.0mph /  6.4km/h 84% 0.00in /  0mm 0.00 W/m2
03:50 24.0 °F /  -4.4 °C 19.9 °F /  -6.7 °C 29.85in /  1010.7hPa SE 4.0mph /  6.4km/h 4.0mph /  6.4km/h 84% 0.00in /  0mm 0.00 W/m2
03:55 23.8 °F /  -4.6 °C 19.7 °F /  -6.8 °C 29.85in /  1010.7hPa SE 5.0mph /  8km/h 7.0mph /  11.3km/h 84% 0.00in /  0mm 0.00 W/m2
04:00 23.8 °F /  -4.6 °C 19.7 °F /  -6.8 °C 29.85in /  1010.7hPa SE 3.0mph /  4.8km/h 7.0mph /  11.3km/h 84% 0.00in /  0mm 0.00 W/m2
04:05 23.8 °F /  -4.6 °C 19.9 °F /  -6.7 °C 29.85in /  1010.7hPa ESE 4.0mph /  6.4km/h 7.0mph /  11.3km/h 85% 0.00in /  0mm 0.00 W/m2
04:10 23.9 °F /  -4.5 °C 19.8 °F /  -6.8 °C 29.85in /  1010.7hPa SE 2.0mph /  3.2km/h 5.0mph /  8km/h 84% 0.00in /  0mm 0.00 W/m2
04:15 23.7 °F /  -4.6 °C 19.6 °F /  -6.9 °C 29.86in /  1011.1hPa SE 5.0mph /  8km/h 5.0mph /  8km/h 84% 0.00in /  0mm 0.00 W/m2
04:20 23.5 °F /  -4.7 °C 19.7 °F /  -6.8 °C 29.85in /  1010.7hPa SE 5.0mph /  8km/h 5.0mph /  8km/h 85% 0.00in /  0mm 0.00 W/m2
04:25 23.3 °F /  -4.8 °C 19.2 °F /  -7.1 °C 29.86in /  1011.1hPa SE 4.0mph /  6.4km/h 7.0mph /  11.3km/h 84% 0.00in /  0mm 0.00 W/m2
04:30 23.0 °F /  -5 °C 19.2 °F /  -7.1 °C 29.86in /  1011.1hPa SE 3.0mph /  4.8km/h 7.0mph /  11.3km/h 85% 0.00in /  0mm 0.00 W/m2
04:35 22.6 °F /  -5.2 °C 18.8 °F /  -7.3 °C 29.86in /  1011.1hPa SE 4.0mph /  6.4km/h 7.0mph /  11.3km/h 85% 0.00in /  0mm 0.00 W/m2
04:40 22.2 °F /  -5.4 °C 18.4 °F /  -7.6 °C 29.86in /  1011.1hPa SSE 6.0mph /  9.7km/h 7.0mph /  11.3km/h 85% 0.00in /  0mm 0.00 W/m2
04:45 22.1 °F /  -5.5 °C 18.6 °F /  -7.4 °C 29.86in /  1011.1hPa SE 5.0mph /  8km/h 8.0mph /  12.9km/h 86% 0.00in /  0mm 0.00 W/m2
04:50 22.1 °F /  -5.5 °C 18.6 °F /  -7.4 °C 29.86in /  1011.1hPa SE 4.0mph /  6.4km/h 8.0mph /  12.9km/h 86% 0.00in /  0mm 0.00 W/m2
04:55 22.1 °F /  -5.5 °C 18.6 °F /  -7.4 °C 29.86in /  1011.1hPa SE 7.0mph /  11.3km/h 8.0mph /  12.9km/h 86% 0.00in /  0mm 0.00 W/m2
05:00 22.1 °F /  -5.5 °C 18.6 °F /  -7.4 °C 29.86in /  1011.1hPa SSE 6.0mph /  9.7km/h 8.0mph /  12.9km/h 86% 0.00in /  0mm 0.00 W/m2
05:05 22.0 °F /  -5.6 °C 18.5 °F /  -7.5 °C 29.86in /  1011.1hPa SSE 5.0mph /  8km/h 8.0mph /  12.9km/h 86% 0.00in /  0mm 0.00 W/m2
05:10 22.0 °F /  -5.6 °C 18.5 °F /  -7.5 °C 29.86in /  1011.1hPa SE 5.0mph /  8km/h 8.0mph /  12.9km/h 86% 0.00in /  0mm 0.00 W/m2
05:15 21.9 °F /  -5.6 °C 18.4 °F /  -7.6 °C 29.86in /  1011.1hPa SSE 5.0mph /  8km/h 7.0mph /  11.3km/h 86% 0.00in /  0mm 0.00 W/m2
05:20 22.1 °F /  -5.5 °C 18.8 °F /  -7.3 °C 29.85in /  1010.7hPa SE 4.0mph /  6.4km/h 7.0mph /  11.3km/h 87% 0.00in /  0mm 0.00 W/m2
05:25 22.5 °F /  -5.3 °C 19.5 °F /  -6.9 °C 29.86in /  1011.1hPa SSE 5.0mph /  8km/h 7.0mph /  11.3km/h 88% 0.00in /  0mm 0.00 W/m2
05:30 23.0 °F /  -5 °C 20.0 °F /  -6.7 °C 29.85in /  1010.7hPa South 4.0mph /  6.4km/h 8.0mph /  12.9km/h 88% 0.00in /  0mm 0.00 W/m2
05:35 23.6 °F /  -4.7 °C 20.8 °F /  -6.2 °C 29.85in /  1010.7hPa South 4.0mph /  6.4km/h 8.0mph /  12.9km/h 89% 0.00in /  0mm 0.00 W/m2
05:40 24.0 °F /  -4.4 °C 21.2 °F /  -6 °C 29.85in /  1010.7hPa South 3.0mph /  4.8km/h 6.0mph /  9.7km/h 89% 0.00in /  0mm 0.00 W/m2
05:45 24.5 °F /  -4.2 °C 22.0 °F /  -5.6 °C 29.85in /  1010.7hPa SSW 5.0mph /  8km/h 9.0mph /  14.5km/h 90% 0.00in /  0mm 0.00 W/m2
05:50 25.2 °F /  -3.8 °C 22.7 °F /  -5.2 °C 29.85in /  1010.7hPa South 7.0mph /  11.3km/h 12.0mph /  19.3km/h 90% 0.00in /  0mm 0.00 W/m2
05:55 25.5 °F /  -3.6 °C 23.0 °F /  -5 °C 29.85in /  1010.7hPa SW 7.0mph /  11.3km/h 15.0mph /  24.1km/h 90% 0.00in /  0mm 0.00 W/m2
06:00 25.6 °F /  -3.6 °C 23.1 °F /  -4.9 °C 29.85in /  1010.7hPa SSW 11.0mph /  17.7km/h 15.0mph /  24.1km/h 90% 0.00in /  0mm 0.00 W/m2
06:05 25.6 °F /  -3.6 °C 23.1 °F /  -4.9 °C 29.85in /  1010.7hPa SSW 5.0mph /  8km/h 13.0mph /  20.9km/h 90% 0.00in /  0mm 0.00 W/m2
06:10 25.6 °F /  -3.6 °C 22.8 °F /  -5.1 °C 29.86in /  1011.1hPa SSW 14.0mph /  22.5km/h 14.0mph /  22.5km/h 89% 0.00in /  0mm 0.00 W/m2
06:15 25.5 °F /  -3.6 °C 23.0 °F /  -5 °C 29.85in /  1010.7hPa South 6.0mph /  9.7km/h 15.0mph /  24.1km/h 90% 0.00in /  0mm 0.00 W/m2
06:20 25.6 °F /  -3.6 °C 23.1 °F /  -4.9 °C 29.85in /  1010.7hPa SSW 7.0mph /  11.3km/h 15.0mph /  24.1km/h 90% 0.00in /  0mm 0.00 W/m2
06:25 25.8 °F /  -3.4 °C 23.3 °F /  -4.8 °C 29.85in /  1010.7hPa SW 8.0mph /  12.9km/h 13.0mph /  20.9km/h 90% 0.00in /  0mm 0.00 W/m2
06:30 25.9 °F /  -3.4 °C 23.4 °F /  -4.8 °C 29.85in /  1010.7hPa SW 4.0mph /  6.4km/h 13.0mph /  20.9km/h 90% 0.00in /  0mm 0.00 W/m2
06:35 26.0 °F /  -3.3 °C 23.5 °F /  -4.7 °C 29.85in /  1010.7hPa SW 4.0mph /  6.4km/h 10.0mph /  16.1km/h 90% 0.00in /  0mm 0.00 W/m2
06:40 26.1 °F /  -3.3 °C 23.6 °F /  -4.7 °C 29.85in /  1010.7hPa SSW 4.0mph /  6.4km/h 11.0mph /  17.7km/h 90% 0.00in /  0mm 0.00 W/m2
06:45 26.1 °F /  -3.3 °C 23.6 °F /  -4.7 °C 29.85in /  1010.7hPa SSW 8.0mph /  12.9km/h 12.0mph /  19.3km/h 90% 0.00in /  0mm 0.00 W/m2
06:50 26.1 °F /  -3.3 °C 23.6 °F /  -4.7 °C 29.85in /  1010.7hPa South 8.0mph /  12.9km/h 12.0mph /  19.3km/h 90% 0.00in /  0mm 0.00 W/m2
06:55 26.1 °F /  -3.3 °C 23.6 °F /  -4.7 °C 29.85in /  1010.7hPa SSW 10.0mph /  16.1km/h 11.0mph /  17.7km/h 90% 0.00in /  0mm 0.00 W/m2
07:00 26.2 °F /  -3.2 °C 23.7 °F /  -4.6 °C 29.84in /  1010.4hPa SSW 4.0mph /  6.4km/h 11.0mph /  17.7km/h 90% 0.00in /  0mm 0.00 W/m2
07:05 26.3 °F /  -3.2 °C 24.0 °F /  -4.4 °C 29.84in /  1010.4hPa SW 8.0mph /  12.9km/h 11.0mph /  17.7km/h 91% 0.00in /  0mm 0.00 W/m2
07:10 26.4 °F /  -3.1 °C 24.1 °F /  -4.4 °C 29.85in /  1010.7hPa SSW 7.0mph /  11.3km/h 13.0mph /  20.9km/h 91% 0.00in /  0mm 0.00 W/m2
07:15 26.5 °F /  -3.1 °C 24.2 °F /  -4.3 °C 29.85in /  1010.7hPa SSW 5.0mph /  8km/h 13.0mph /  20.9km/h 91% 0.00in /  0mm 0.00 W/m2
07:20 26.6 °F /  -3 °C 24.3 °F /  -4.3 °C 29.85in /  1010.7hPa SW 5.0mph /  8km/h 14.0mph /  22.5km/h 91% 0.00in /  0mm 0.00 W/m2
07:25 26.6 °F /  -3 °C 24.3 °F /  -4.3 °C 29.84in /  1010.4hPa SW 4.0mph /  6.4km/h 14.0mph /  22.5km/h 91% 0.00in /  0mm 0.00 W/m2
07:30 26.6 °F /  -3 °C 24.1 °F /  -4.4 °C 29.84in /  1010.4hPa SW 6.0mph /  9.7km/h 12.0mph /  19.3km/h 90% 0.00in /  0mm 0.00 W/m2
07:35 26.6 °F /  -3 °C 24.3 °F /  -4.3 °C 29.84in /  1010.4hPa SW 8.0mph /  12.9km/h 12.0mph /  19.3km/h 91% 0.00in /  0mm 0.00 W/m2
07:40 26.7 °F /  -2.9 °C 24.4 °F /  -4.2 °C 29.84in /  1010.4hPa SW 6.0mph /  9.7km/h 11.0mph /  17.7km/h 91% 0.00in /  0mm 0.00 W/m2
07:45 26.8 °F /  -2.9 °C 24.5 °F /  -4.2 °C 29.85in /  1010.7hPa SSW 5.0mph /  8km/h 11.0mph /  17.7km/h 91% 0.00in /  0mm 0.00 W/m2
07:50 26.9 °F /  -2.8 °C 24.6 °F /  -4.1 °C 29.85in /  1010.7hPa South 6.0mph /  9.7km/h 10.0mph /  16.1km/h 91% 0.00in /  0mm 0.00 W/m2
07:55 27.0 °F /  -2.8 °C 24.7 °F /  -4.1 °C 29.85in /  1010.7hPa SW 7.0mph /  11.3km/h 12.0mph /  19.3km/h 91% 0.00in /  0mm 0.00 W/m2
08:00 27.0 °F /  -2.8 °C 24.7 °F /  -4.1 °C 29.86in /  1011.1hPa SSW 8.0mph /  12.9km/h 12.0mph /  19.3km/h 91% 0.00in /  0mm 0.00 W/m2
08:05 27.1 °F /  -2.7 °C 24.8 °F /  -4 °C 29.85in /  1010.7hPa South 3.0mph /  4.8km/h 11.0mph /  17.7km/h 91% 0.00in /  0mm 0.00 W/m2
08:10 27.1 °F /  -2.7 °C 24.8 °F /  -4 °C 29.85in /  1010.7hPa SW 8.0mph /  12.9km/h 10.0mph /  16.1km/h 91% 0.00in /  0mm 0.00 W/m2
08:15 27.1 °F /  -2.7 °C 24.8 °F /  -4 °C 29.85in /  1010.7hPa SSW 7.0mph /  11.3km/h 11.0mph /  17.7km/h 91% 0.00in /  0mm 0.00 W/m2
08:20 27.1 °F /  -2.7 °C 24.8 °F /  -4 °C 29.85in /  1010.7hPa South 7.0mph /  11.3km/h 11.0mph /  17.7km/h 91% 0.00in /  0mm 0.00 W/m2
08:25 27.2 °F /  -2.7 °C 24.9 °F /  -3.9 °C 29.86in /  1011.1hPa SSW 3.0mph /  4.8km/h 10.0mph /  16.1km/h 91% 0.00in /  0mm 0.00 W/m2
08:30 27.2 °F /  -2.7 °C 24.9 °F /  -3.9 °C 29.85in /  1010.7hPa South 8.0mph /  12.9km/h 10.0mph /  16.1km/h 91% 0.00in /  0mm 0.00 W/m2
08:35 27.3 °F /  -2.6 °C 25.0 °F /  -3.9 °C 29.86in /  1011.1hPa South 5.0mph /  8km/h 10.0mph /  16.1km/h 91% 0.00in /  0mm 0.00 W/m2
08:40 27.4 °F /  -2.6 °C 25.1 °F /  -3.8 °C 29.86in /  1011.1hPa SSW 5.0mph /  8km/h 10.0mph /  16.1km/h 91% 0.00in /  0mm 0.00 W/m2
08:45 27.4 °F /  -2.6 °C 25.1 °F /  -3.8 °C 29.86in /  1011.1hPa SSW 4.0mph /  6.4km/h 10.0mph /  16.1km/h 91% 0.00in /  0mm 0.00 W/m2
08:50 27.5 °F /  -2.5 °C 25.2 °F /  -3.8 °C 29.86in /  1011.1hPa SW 3.0mph /  4.8km/h 9.0mph /  14.5km/h 91% 0.00in /  0mm 7.00 W/m2
08:55 27.6 °F /  -2.4 °C 25.3 °F /  -3.7 °C 29.86in /  1011.1hPa SW 7.0mph /  11.3km/h 9.0mph /  14.5km/h 91% 0.00in /  0mm 11.00 W/m2
09:00 27.6 °F /  -2.4 °C 25.3 °F /  -3.7 °C 29.86in /  1011.1hPa SSW 7.0mph /  11.3km/h 10.0mph /  16.1km/h 91% 0.00in /  0mm 11.00 W/m2
09:05 27.7 °F /  -2.4 °C 25.4 °F /  -3.7 °C 29.86in /  1011.1hPa SW 7.0mph /  11.3km/h 10.0mph /  16.1km/h 91% 0.00in /  0mm 16.00 W/m2
09:10 27.8 °F /  -2.3 °C 25.5 °F /  -3.6 °C 29.86in /  1011.1hPa SSW 5.0mph /  8km/h 10.0mph /  16.1km/h 91% 0.00in /  0mm 19.00 W/m2
09:15 27.8 °F /  -2.3 °C 25.5 °F /  -3.6 °C 29.86in /  1011.1hPa SSE 6.0mph /  9.7km/h 12.0mph /  19.3km/h 91% 0.00in /  0mm 21.00 W/m2
09:20 28.0 °F /  -2.2 °C 25.7 °F /  -3.5 °C 29.86in /  1011.1hPa South 11.0mph /  17.7km/h 12.0mph /  19.3km/h 91% 0.00in /  0mm 23.00 W/m2
09:25 28.1 °F /  -2.2 °C 26.1 °F /  -3.3 °C 29.86in /  1011.1hPa SSW 8.0mph /  12.9km/h 12.0mph /  19.3km/h 92% 0.00in /  0mm 28.00 W/m2
09:30 28.1 °F /  -2.2 °C 26.1 °F /  -3.3 °C 29.85in /  1010.7hPa South 7.0mph /  11.3km/h 12.0mph /  19.3km/h 92% 0.00in /  0mm 30.00 W/m2
09:35 28.3 °F /  -2.1 °C 26.0 °F /  -3.3 °C 29.85in /  1010.7hPa South 6.0mph /  9.7km/h 11.0mph /  17.7km/h 91% 0.00in /  0mm 28.00 W/m2
09:40 28.4 °F /  -2 °C 26.1 °F /  -3.3 °C 29.86in /  1011.1hPa SSW 9.0mph /  14.5km/h 13.0mph /  20.9km/h 91% 0.00in /  0mm 26.00 W/m2
09:45 28.4 °F /  -2 °C 26.1 °F /  -3.3 °C 29.85in /  1010.7hPa SSW 8.0mph /  12.9km/h 15.0mph /  24.1km/h 91% 0.00in /  0mm 40.00 W/m2
09:50 28.5 °F /  -1.9 °C 26.2 °F /  -3.2 °C 29.86in /  1011.1hPa SSW 8.0mph /  12.9km/h 15.0mph /  24.1km/h 91% 0.00in /  0mm 46.00 W/m2
09:55 28.6 °F /  -1.9 °C 26.3 °F /  -3.2 °C 29.85in /  1010.7hPa SSW 8.0mph /  12.9km/h 13.0mph /  20.9km/h 91% 0.00in /  0mm 46.00 W/m2
10:00 28.7 °F /  -1.8 °C 26.4 °F /  -3.1 °C 29.85in /  1010.7hPa SSE 7.0mph /  11.3km/h 14.0mph /  22.5km/h 91% 0.00in /  0mm 51.00 W/m2
10:05 28.8 °F /  -1.8 °C 26.5 °F /  -3.1 °C 29.85in /  1010.7hPa WSW 9.0mph /  14.5km/h 14.0mph /  22.5km/h 91% 0.00in /  0mm 95.00 W/m2
10:10 29.0 °F /  -1.7 °C 26.4 °F /  -3.1 °C 29.85in /  1010.7hPa South 9.0mph /  14.5km/h 13.0mph /  20.9km/h 90% 0.00in /  0mm 111.00 W/m2
10:15 29.2 °F /  -1.6 °C 26.9 °F /  -2.8 °C 29.85in /  1010.7hPa SSW 8.0mph /  12.9km/h 15.0mph /  24.1km/h 91% 0.00in /  0mm 60.00 W/m2
10:20 29.2 °F /  -1.6 °C 26.6 °F /  -3 °C 29.85in /  1010.7hPa SSW 7.0mph /  11.3km/h 15.0mph /  24.1km/h 90% 0.00in /  0mm 49.00 W/m2
10:25 29.3 °F /  -1.5 °C 26.7 °F /  -2.9 °C 29.85in /  1010.7hPa South 5.0mph /  8km/h 13.0mph /  20.9km/h 90% 0.00in /  0mm 60.00 W/m2
10:30 29.4 °F /  -1.4 °C 26.8 °F /  -2.9 °C 29.85in /  1010.7hPa SSW 6.0mph /  9.7km/h 13.0mph /  20.9km/h 90% 0.00in /  0mm 62.00 W/m2
10:35 29.6 °F /  -1.3 °C 27.0 °F /  -2.8 °C 29.85in /  1010.7hPa South 11.0mph /  17.7km/h 13.0mph /  20.9km/h 90% 0.00in /  0mm 86.00 W/m2
10:40 29.7 °F /  -1.3 °C 27.1 °F /  -2.7 °C 29.85in /  1010.7hPa South 8.0mph /  12.9km/h 13.0mph /  20.9km/h 90% 0.00in /  0mm 84.00 W/m2
10:45 29.7 °F /  -1.3 °C 26.9 °F /  -2.8 °C 29.85in /  1010.7hPa SSW 8.0mph /  12.9km/h 15.0mph /  24.1km/h 89% 0.00in /  0mm 77.00 W/m2
10:50 29.6 °F /  -1.3 °C 26.8 °F /  -2.9 °C 29.85in /  1010.7hPa SW 11.0mph /  17.7km/h 15.0mph /  24.1km/h 89% 0.00in /  0mm 74.00 W/m2
10:55 29.7 °F /  -1.3 °C 26.9 °F /  -2.8 °C 29.85in /  1010.7hPa SSW 6.0mph /  9.7km/h 15.0mph /  24.1km/h 89% 0.00in /  0mm 98.00 W/m2
11:00 29.9 °F /  -1.2 °C 27.1 °F /  -2.7 °C 29.85in /  1010.7hPa SSW 10.0mph /  16.1km/h 14.0mph /  22.5km/h 89% 0.00in /  0mm 109.00 W/m2
11:05 30.1 °F /  -1.1 °C 27.3 °F /  -2.6 °C 29.85in /  1010.7hPa SSW 10.0mph /  16.1km/h 15.0mph /  24.1km/h 89% 0.00in /  0mm 130.00 W/m2
11:10 30.3 °F /  -0.9 °C 27.4 °F /  -2.6 °C 29.85in /  1010.7hPa SSW 6.0mph /  9.7km/h 16.0mph /  25.7km/h 89% 0.00in /  0mm 158.00 W/m2
11:15 30.5 °F /  -0.8 °C 27.6 °F /  -2.4 °C 29.85in /  1010.7hPa SSW 11.0mph /  17.7km/h 16.0mph /  25.7km/h 89% 0.00in /  0mm 171.00 W/m2
11:20 30.8 °F /  -0.7 °C 27.9 °F /  -2.3 °C 29.85in /  1010.7hPa SSW 9.0mph /  14.5km/h 14.0mph /  22.5km/h 89% 0.00in /  0mm 148.00 W/m2
11:25 30.9 °F /  -0.6 °C 27.8 °F /  -2.3 °C 29.85in /  1010.7hPa SSW 7.0mph /  11.3km/h 14.0mph /  22.5km/h 88% 0.00in /  0mm 167.00 W/m2
11:30 30.8 °F /  -0.7 °C 27.7 °F /  -2.4 °C 29.85in /  1010.7hPa SW 8.0mph /  12.9km/h 14.0mph /  22.5km/h 88% 0.00in /  0mm 195.00 W/m2
11:35 30.9 °F /  -0.6 °C 27.8 °F /  -2.3 °C 29.84in /  1010.4hPa SSW 6.0mph /  9.7km/h 14.0mph /  22.5km/h 88% 0.00in /  0mm 211.00 W/m2
11:40 31.3 °F /  -0.4 °C 28.2 °F /  -2.1 °C 29.84in /  1010.4hPa SSW 5.0mph /  8km/h 14.0mph /  22.5km/h 88% 0.00in /  0mm 225.00 W/m2
11:45 31.6 °F /  -0.2 °C 28.5 °F /  -1.9 °C 29.84in /  1010.4hPa SW 8.0mph /  12.9km/h 14.0mph /  22.5km/h 88% 0.00in /  0mm 197.00 W/m2
11:50 31.5 °F /  -0.3 °C 28.1 °F /  -2.2 °C 29.84in /  1010.4hPa SW 11.0mph /  17.7km/h 13.0mph /  20.9km/h 87% 0.00in /  0mm 185.00 W/m2
11:55 31.5 °F /  -0.3 °C 28.1 °F /  -2.2 °C 29.84in /  1010.4hPa South 6.0mph /  9.7km/h 13.0mph /  20.9km/h 87% 0.00in /  0mm 160.00 W/m2
12:00 31.7 °F /  -0.2 °C 28.3 °F /  -2.1 °C 29.84in /  1010.4hPa SW 6.0mph /  9.7km/h 13.0mph /  20.9km/h 87% 0.00in /  0mm 113.00 W/m2
12:05 31.9 °F /  -0.1 °C 28.5 °F /  -1.9 °C 29.85in /  1010.7hPa SSW 5.0mph /  8km/h 11.0mph /  17.7km/h 87% 0.00in /  0mm 188.00 W/m2
12:10 32.0 °F /  0 °C 28.3 °F /  -2.1 °C 29.85in /  1010.7hPa South 7.0mph /  11.3km/h 12.0mph /  19.3km/h 86% 0.00in /  0mm 169.00 W/m2
12:15 32.1 °F /  0.1 °C 28.4 °F /  -2 °C 29.85in /  1010.7hPa SSW 5.0mph /  8km/h 12.0mph /  19.3km/h 86% 0.00in /  0mm 181.00 W/m2
12:20 32.4 °F /  0.2 °C 28.4 °F /  -2 °C 29.85in /  1010.7hPa SW 8.0mph /  12.9km/h 11.0mph /  17.7km/h 85% 0.00in /  0mm 179.00 W/m2
12:25 32.5 °F /  0.3 °C 28.5 °F /  -1.9 °C 29.85in /  1010.7hPa SW 3.0mph /  4.8km/h 10.0mph /  16.1km/h 85% 0.00in /  0mm 190.00 W/m2
12:30 32.6 °F /  0.3 °C 28.6 °F /  -1.9 °C 29.84in /  1010.4hPa WSW 9.0mph /  14.5km/h 12.0mph /  19.3km/h 85% 0.00in /  0mm 213.00 W/m2
12:35 32.8 °F /  0.4 °C 28.8 °F /  -1.8 °C 29.84in /  1010.4hPa WSW 5.0mph /  8km/h 12.0mph /  19.3km/h 85% 0.00in /  0mm 232.00 W/m2
12:40 33.0 °F /  0.6 °C 28.7 °F /  -1.8 °C 29.84in /  1010.4hPa SW 7.0mph /  11.3km/h 11.0mph /  17.7km/h 84% 0.00in /  0mm 237.00 W/m2
12:45 33.0 °F /  0.6 °C 28.7 °F /  -1.8 °C 29.84in /  1010.4hPa West 7.0mph /  11.3km/h 13.0mph /  20.9km/h 84% 0.00in /  0mm 236.00 W/m2
12:50 33.3 °F /  0.7 °C 28.7 °F /  -1.8 °C 29.85in /  1010.7hPa SW 7.0mph /  11.3km/h 13.0mph /  20.9km/h 83% 0.00in /  0mm 251.00 W/m2
12:55 33.6 °F /  0.9 °C 29.0 °F /  -1.7 °C 29.84in /  1010.4hPa West 7.0mph /  11.3km/h 12.0mph /  19.3km/h 83% 0.00in /  0mm 279.00 W/m2
13:00 33.6 °F /  0.9 °C 28.7 °F /  -1.8 °C 29.84in /  1010.4hPa WSW 8.0mph /  12.9km/h 12.0mph /  19.3km/h 82% 0.00in /  0mm 269.00 W/m2
13:05 33.6 °F /  0.9 °C 28.7 °F /  -1.8 °C 29.84in /  1010.4hPa SW 6.0mph /  9.7km/h 12.0mph /  19.3km/h 82% 0.00in /  0mm 267.00 W/m2
13:10 33.8 °F /  1 °C 28.6 °F /  -1.9 °C 29.84in /  1010.4hPa SW 6.0mph /  9.7km/h 12.0mph /  19.3km/h 81% 0.00in /  0mm 272.00 W/m2
13:15 33.9 °F /  1.1 °C 28.7 °F /  -1.8 °C 29.84in /  1010.4hPa SSW 4.0mph /  6.4km/h 12.0mph /  19.3km/h 81% 0.00in /  0mm 287.00 W/m2
13:20 34.3 °F /  1.3 °C 29.1 °F /  -1.6 °C 29.84in /  1010.4hPa WSW 9.0mph /  14.5km/h 11.0mph /  17.7km/h 81% 0.00in /  0mm 313.00 W/m2
13:25 34.2 °F /  1.2 °C 28.7 °F /  -1.8 °C 29.84in /  1010.4hPa WSW 2.0mph /  3.2km/h 11.0mph /  17.7km/h 80% 0.00in /  0mm 274.00 W/m2
13:30 34.4 °F /  1.3 °C 29.2 °F /  -1.6 °C 29.84in /  1010.4hPa SW 5.0mph /  8km/h 11.0mph /  17.7km/h 81% 0.00in /  0mm 341.00 W/m2
13:35 34.9 °F /  1.6 °C 29.7 °F /  -1.3 °C 29.83in /  1010hPa Calm   11.0mph /  17.7km/h 81% 0.00in /  0mm 371.00 W/m2
13:40 35.0 °F /  1.7 °C 29.1 °F /  -1.6 °C 29.83in /  1010hPa West 8.0mph /  12.9km/h 11.0mph /  17.7km/h 79% 0.00in /  0mm 418.00 W/m2
13:45 35.4 °F /  1.9 °C 29.2 °F /  -1.6 °C 29.83in /  1010hPa West 4.0mph /  6.4km/h 9.0mph /  14.5km/h 78% 0.00in /  0mm 432.00 W/m2
13:50 35.9 °F /  2.2 °C 29.7 °F /  -1.3 °C 29.83in /  1010hPa South 7.0mph /  11.3km/h 9.0mph /  14.5km/h 78% 0.00in /  0mm 499.00 W/m2
13:55 37.0 °F /  2.8 °C 30.1 °F /  -1.1 °C 29.83in /  1010hPa SSW 7.0mph /  11.3km/h 11.0mph /  17.7km/h 76% 0.00in /  0mm 448.00 W/m2
14:00 37.3 °F /  2.9 °C 29.8 °F /  -1.2 °C 29.83in /  1010hPa SSW 4.0mph /  6.4km/h 11.0mph /  17.7km/h 74% 0.00in /  0mm 469.00 W/m2
14:05 37.6 °F /  3.1 °C 29.7 °F /  -1.3 °C 29.82in /  1009.7hPa West 6.0mph /  9.7km/h 12.0mph /  19.3km/h 73% 0.00in /  0mm 415.00 W/m2
14:10 37.1 °F /  2.8 °C 29.6 °F /  -1.3 °C 29.82in /  1009.7hPa WSW 5.0mph /  8km/h 12.0mph /  19.3km/h 74% 0.00in /  0mm 469.00 W/m2
14:15 37.3 °F /  2.9 °C 30.1 °F /  -1.1 °C 29.82in /  1009.7hPa West 6.0mph /  9.7km/h 11.0mph /  17.7km/h 75% 0.00in /  0mm 578.00 W/m2
14:20 37.9 °F /  3.3 °C 30.0 °F /  -1.1 °C 29.82in /  1009.7hPa SSW 3.0mph /  4.8km/h 11.0mph /  17.7km/h 73% 0.00in /  0mm 457.00 W/m2
14:25 37.6 °F /  3.1 °C 29.7 °F /  -1.3 °C 29.82in /  1009.7hPa WSW 1.0mph /  1.6km/h 11.0mph /  17.7km/h 73% 0.00in /  0mm 373.00 W/m2
14:30 38.0 °F /  3.3 °C 30.4 °F /  -0.9 °C 29.82in /  1009.7hPa SSW 5.0mph /  8km/h 11.0mph /  17.7km/h 74% 0.00in /  0mm 840.00 W/m2
14:35 38.9 °F /  3.8 °C 30.6 °F /  -0.8 °C 29.82in /  1009.7hPa SSE 9.0mph /  14.5km/h 9.0mph /  14.5km/h 72% 0.00in /  0mm 817.00 W/m2
14:40 39.9 °F /  4.4 °C 31.3 °F /  -0.4 °C 29.81in /  1009.4hPa WSW 5.0mph /  8km/h 9.0mph /  14.5km/h 71% 0.00in /  0mm 775.00 W/m2
14:45 40.2 °F /  4.6 °C 30.5 °F /  -0.8 °C 29.81in /  1009.4hPa SSW 6.0mph /  9.7km/h 9.0mph /  14.5km/h 68% 0.00in /  0mm 768.00 W/m2
14:50 40.9 °F /  4.9 °C 31.1 °F /  -0.5 °C 29.81in /  1009.4hPa SW 5.0mph /  8km/h 10.0mph /  16.1km/h 68% 0.00in /  0mm 766.00 W/m2
14:55 41.4 °F /  5.2 °C 31.3 °F /  -0.4 °C 29.80in /  1009hPa South 5.0mph /  8km/h 10.0mph /  16.1km/h 67% 0.00in /  0mm 782.00 W/m2
15:00 42.3 °F /  5.7 °C 31.4 °F /  -0.3 °C 29.80in /  1009hPa SE 1.0mph /  1.6km/h 9.0mph /  14.5km/h 65% 0.00in /  0mm 779.00 W/m2
15:05 42.5 °F /  5.8 °C 31.2 °F /  -0.4 °C 29.80in /  1009hPa WSW 5.0mph /  8km/h 9.0mph /  14.5km/h 64% 0.00in /  0mm 770.00 W/m2
15:10 41.6 °F /  5.3 °C 30.7 °F /  -0.7 °C 29.80in /  1009hPa WNW 2.0mph /  3.2km/h 7.0mph /  11.3km/h 65% 0.00in /  0mm 761.00 W/m2
15:15 41.4 °F /  5.2 °C 30.5 °F /  -0.8 °C 29.80in /  1009hPa SE 2.0mph /  3.2km/h 7.0mph /  11.3km/h 65% 0.00in /  0mm 766.00 W/m2
15:20 41.7 °F /  5.4 °C 30.8 °F /  -0.7 °C 29.80in /  1009hPa SW 1.0mph /  1.6km/h 7.0mph /  11.3km/h 65% 0.00in /  0mm 772.00 W/m2
15:25 42.6 °F /  5.9 °C 31.3 °F /  -0.4 °C 29.79in /  1008.7hPa South 8.0mph /  12.9km/h 11.0mph /  17.7km/h 64% 0.00in /  0mm 691.00 W/m2
15:30 42.5 °F /  5.8 °C 30.8 °F /  -0.7 °C 29.79in /  1008.7hPa South 5.0mph /  8km/h 11.0mph /  17.7km/h 63% 0.00in /  0mm 803.00 W/m2
15:35 42.1 °F /  5.6 °C 30.8 °F /  -0.7 °C 29.78in /  1008.4hPa SSW 6.0mph /  9.7km/h 10.0mph /  16.1km/h 64% 0.00in /  0mm 329.00 W/m2
15:40 42.6 °F /  5.9 °C 31.3 °F /  -0.4 °C 29.78in /  1008.4hPa South 5.0mph /  8km/h 10.0mph /  16.1km/h 64% 0.00in /  0mm 766.00 W/m2
15:45 42.7 °F /  5.9 °C 31.0 °F /  -0.6 °C 29.78in /  1008.4hPa WSW 4.0mph /  6.4km/h 9.0mph /  14.5km/h 63% 0.00in /  0mm 744.00 W/m2
15:50 42.6 °F /  5.9 °C 30.9 °F /  -0.6 °C 29.78in /  1008.4hPa SSE 5.0mph /  8km/h 9.0mph /  14.5km/h 63% 0.00in /  0mm 225.00 W/m2
15:55 42.8 °F /  6 °C 30.7 °F /  -0.7 °C 29.78in /  1008.4hPa SE 5.0mph /  8km/h 9.0mph /  14.5km/h 62% 0.00in /  0mm 768.00 W/m2
16:00 43.4 °F /  6.3 °C 31.6 °F /  -0.2 °C 29.78in /  1008.4hPa SSE 6.0mph /  9.7km/h 8.0mph /  12.9km/h 63% 0.00in /  0mm 737.00 W/m2
16:05 44.5 °F /  6.9 °C 31.9 °F /  -0.1 °C 29.78in /  1008.4hPa SSE 9.0mph /  14.5km/h 10.0mph /  16.1km/h 61% 0.00in /  0mm 724.00 W/m2
16:10 45.1 °F /  7.3 °C 31.6 °F /  -0.2 °C 29.77in /  1008hPa SSW 4.0mph /  6.4km/h 10.0mph /  16.1km/h 59% 0.00in /  0mm 715.00 W/m2
16:15 45.1 °F /  7.3 °C 30.8 °F /  -0.7 °C 29.77in /  1008hPa SE 8.0mph /  12.9km/h 12.0mph /  19.3km/h 57% 0.00in /  0mm 679.00 W/m2
16:20 45.2 °F /  7.3 °C 30.4 °F /  -0.9 °C 29.77in /  1008hPa South 1.0mph /  1.6km/h 12.0mph /  19.3km/h 56% 0.00in /  0mm 367.00 W/m2
16:25 45.4 °F /  7.4 °C 31.9 °F /  -0.1 °C 29.77in /  1008hPa SSE 9.0mph /  14.5km/h 10.0mph /  16.1km/h 59% 0.00in /  0mm 712.00 W/m2
16:30 46.3 °F /  7.9 °C 31.4 °F /  -0.3 °C 29.77in /  1008hPa SW 3.0mph /  4.8km/h 12.0mph /  19.3km/h 56% 0.00in /  0mm 693.00 W/m2
16:35 45.8 °F /  7.7 °C 31.0 °F /  -0.6 °C 29.77in /  1008hPa South 10.0mph /  16.1km/h 12.0mph /  19.3km/h 56% 0.00in /  0mm 682.00 W/m2
16:40 46.0 °F /  7.8 °C 30.3 °F /  -0.9 °C 29.77in /  1008hPa South 3.0mph /  4.8km/h 11.0mph /  17.7km/h 54% 0.00in /  0mm 677.00 W/m2
16:45 45.8 °F /  7.7 °C 30.5 °F /  -0.8 °C 29.77in /  1008hPa SSE 8.0mph /  12.9km/h 11.0mph /  17.7km/h 55% 0.00in /  0mm 675.00 W/m2
16:50 45.8 °F /  7.7 °C 31.0 °F /  -0.6 °C 29.77in /  1008hPa South 5.0mph /  8km/h 14.0mph /  22.5km/h 56% 0.00in /  0mm 675.00 W/m2
16:55 46.0 °F /  7.8 °C 29.8 °F /  -1.2 °C 29.77in /  1008hPa Calm   14.0mph /  22.5km/h 53% 0.00in /  0mm 666.00 W/m2
17:00 46.1 °F /  7.8 °C 30.8 °F /  -0.7 °C 29.77in /  1008hPa South 6.0mph /  9.7km/h 12.0mph /  19.3km/h 55% 0.00in /  0mm 652.00 W/m2
17:05 46.5 °F /  8.1 °C 30.7 °F /  -0.7 °C 29.77in /  1008hPa South 6.0mph /  9.7km/h 12.0mph /  19.3km/h 54% 0.00in /  0mm 636.00 W/m2
17:10 46.7 °F /  8.2 °C 30.9 °F /  -0.6 °C 29.76in /  1007.7hPa SSW 4.0mph /  6.4km/h 9.0mph /  14.5km/h 54% 0.00in /  0mm 622.00 W/m2
17:15 47.2 °F /  8.4 °C 31.8 °F /  -0.1 °C 29.76in /  1007.7hPa SSW 5.0mph /  8km/h 9.0mph /  14.5km/h 55% 0.00in /  0mm 612.00 W/m2
17:20 47.5 °F /  8.6 °C 30.7 °F /  -0.7 °C 29.76in /  1007.7hPa South 4.0mph /  6.4km/h 10.0mph /  16.1km/h 52% 0.00in /  0mm 599.00 W/m2
17:25 47.7 °F /  8.7 °C 31.4 °F /  -0.3 °C 29.76in /  1007.7hPa South 7.0mph /  11.3km/h 11.0mph /  17.7km/h 53% 0.00in /  0mm 612.00 W/m2
17:30 47.9 °F /  8.8 °C 30.1 °F /  -1.1 °C 29.76in /  1007.7hPa South 5.0mph /  8km/h 11.0mph /  17.7km/h 50% 0.00in /  0mm 584.00 W/m2
17:35 47.8 °F /  8.8 °C 31.0 °F /  -0.6 °C 29.76in /  1007.7hPa ESE 2.0mph /  3.2km/h 9.0mph /  14.5km/h 52% 0.00in /  0mm 501.00 W/m2
17:40 47.6 °F /  8.7 °C 30.3 °F /  -0.9 °C 29.76in /  1007.7hPa East 4.0mph /  6.4km/h 11.0mph /  17.7km/h 51% 0.00in /  0mm 605.00 W/m2
17:45 47.4 °F /  8.6 °C 30.6 °F /  -0.8 °C 29.76in /  1007.7hPa ESE 6.0mph /  9.7km/h 12.0mph /  19.3km/h 52% 0.00in /  0mm 570.00 W/m2
17:50 47.3 °F /  8.5 °C 30.5 °F /  -0.8 °C 29.75in /  1007.3hPa SSE 9.0mph /  14.5km/h 14.0mph /  22.5km/h 52% 0.00in /  0mm 541.00 W/m2
17:55 47.6 °F /  8.7 °C 30.3 °F /  -0.9 °C 29.75in /  1007.3hPa SSE 5.0mph /  8km/h 14.0mph /  22.5km/h 51% 0.00in /  0mm 529.00 W/m2
18:00 47.4 °F /  8.6 °C 29.7 °F /  -1.3 °C 29.75in /  1007.3hPa South 4.0mph /  6.4km/h 14.0mph /  22.5km/h 50% 0.00in /  0mm 471.00 W/m2
18:05 47.3 °F /  8.5 °C 28.6 °F /  -1.9 °C 29.75in /  1007.3hPa SE 4.0mph /  6.4km/h 14.0mph /  22.5km/h 48% 0.00in /  0mm 327.00 W/m2
18:10 47.5 °F /  8.6 °C 29.3 °F /  -1.5 °C 29.75in /  1007.3hPa SE 5.0mph /  8km/h 13.0mph /  20.9km/h 49% 0.00in /  0mm 531.00 W/m2
18:15 48.0 °F /  8.9 °C 29.2 °F /  -1.6 °C 29.75in /  1007.3hPa SSE 10.0mph /  16.1km/h 12.0mph /  19.3km/h 48% 0.00in /  0mm 443.00 W/m2
18:20 48.0 °F /  8.9 °C 30.2 °F /  -1 °C 29.75in /  1007.3hPa South 6.0mph /  9.7km/h 12.0mph /  19.3km/h 50% 0.00in /  0mm 434.00 W/m2
18:25 47.6 °F /  8.7 °C 28.9 °F /  -1.7 °C 29.75in /  1007.3hPa South 9.0mph /  14.5km/h 15.0mph /  24.1km/h 48% 0.00in /  0mm 325.00 W/m2
18:30 46.9 °F /  8.3 °C 28.2 °F /  -2.1 °C 29.75in /  1007.3hPa ESE 3.0mph /  4.8km/h 15.0mph /  24.1km/h 48% 0.00in /  0mm 295.00 W/m2
18:35 47.0 °F /  8.3 °C 30.3 °F /  -0.9 °C 29.75in /  1007.3hPa South 5.0mph /  8km/h 13.0mph /  20.9km/h 52% 0.00in /  0mm 489.00 W/m2
18:40 47.7 °F /  8.7 °C 29.5 °F /  -1.4 °C 29.75in /  1007.3hPa SSW 2.0mph /  3.2km/h 13.0mph /  20.9km/h 49% 0.00in /  0mm 330.00 W/m2
18:45 48.1 °F /  8.9 °C 29.8 °F /  -1.2 °C 29.75in /  1007.3hPa SSE 9.0mph /  14.5km/h 11.0mph /  17.7km/h 49% 0.00in /  0mm 441.00 W/m2
18:50 48.3 °F /  9.1 °C 29.5 °F /  -1.4 °C 29.75in /  1007.3hPa SW 6.0mph /  9.7km/h 11.0mph /  17.7km/h 48% 0.00in /  0mm 399.00 W/m2
18:55 48.6 °F /  9.2 °C 28.2 °F /  -2.1 °C 29.75in /  1007.3hPa SW 6.0mph /  9.7km/h 11.0mph /  17.7km/h 45% 0.00in /  0mm 408.00 W/m2
19:00 48.9 °F /  9.4 °C 29.5 °F /  -1.4 °C 29.75in /  1007.3hPa South 7.0mph /  11.3km/h 10.0mph /  16.1km/h 47% 0.00in /  0mm 387.00 W/m2
19:05 48.7 °F /  9.3 °C 30.4 °F /  -0.9 °C 29.75in /  1007.3hPa SE 9.0mph /  14.5km/h 10.0mph /  16.1km/h 49% 0.00in /  0mm 360.00 W/m2
19:10 48.5 °F /  9.2 °C 29.2 °F /  -1.6 °C 29.75in /  1007.3hPa South 6.0mph /  9.7km/h 10.0mph /  16.1km/h 47% 0.00in /  0mm 348.00 W/m2
19:15 48.4 °F /  9.1 °C 29.6 °F /  -1.3 °C 29.75in /  1007.3hPa South 3.0mph /  4.8km/h 9.0mph /  14.5km/h 48% 0.00in /  0mm 341.00 W/m2
19:20 48.6 °F /  9.2 °C 29.8 °F /  -1.2 °C 29.75in /  1007.3hPa SSE 6.0mph /  9.7km/h 11.0mph /  17.7km/h 48% 0.00in /  0mm 316.00 W/m2
19:25 48.6 °F /  9.2 °C 29.8 °F /  -1.2 °C 29.75in /  1007.3hPa South 5.0mph /  8km/h 11.0mph /  17.7km/h 48% 0.00in /  0mm 309.00 W/m2
19:30 48.4 °F /  9.1 °C 29.6 °F /  -1.3 °C 29.75in /  1007.3hPa South 8.0mph /  12.9km/h 13.0mph /  20.9km/h 48% 0.00in /  0mm 107.00 W/m2
19:35 47.2 °F /  8.4 °C 29.0 °F /  -1.7 °C 29.76in /  1007.7hPa SSW 9.0mph /  14.5km/h 13.0mph /  20.9km/h 49% 0.00in /  0mm 76.00 W/m2
19:40 46.4 °F /  8 °C 28.8 °F /  -1.8 °C 29.76in /  1007.7hPa South 7.0mph /  11.3km/h 13.0mph /  20.9km/h 50% 0.00in /  0mm 163.00 W/m2
19:45 46.9 °F /  8.3 °C 29.7 °F /  -1.3 °C 29.76in /  1007.7hPa SSW 7.0mph /  11.3km/h 10.0mph /  16.1km/h 51% 0.00in /  0mm 185.00 W/m2
19:50 47.4 °F /  8.6 °C 29.2 °F /  -1.6 °C 29.76in /  1007.7hPa SSW 7.0mph /  11.3km/h 10.0mph /  16.1km/h 49% 0.00in /  0mm 171.00 W/m2
19:55 47.3 °F /  8.5 °C 29.1 °F /  -1.6 °C 29.76in /  1007.7hPa SSE 7.0mph /  11.3km/h 11.0mph /  17.7km/h 49% 0.00in /  0mm 81.00 W/m2
20:00 46.7 °F /  8.2 °C 30.0 °F /  -1.1 °C 29.76in /  1007.7hPa SSE 9.0mph /  14.5km/h 11.0mph /  17.7km/h 52% 0.00in /  0mm 63.00 W/m2
20:05 45.8 °F /  7.7 °C 29.6 °F /  -1.3 °C 29.76in /  1007.7hPa South 6.0mph /  9.7km/h 12.0mph /  19.3km/h 53% 0.00in /  0mm 47.00 W/m2
20:10 45.7 °F /  7.6 °C 30.0 °F /  -1.1 °C 29.76in /  1007.7hPa South 5.0mph /  8km/h 12.0mph /  19.3km/h 54% 0.00in /  0mm 102.00 W/m2
20:15 45.8 °F /  7.7 °C 29.6 °F /  -1.3 °C 29.76in /  1007.7hPa South 4.0mph /  6.4km/h 11.0mph /  17.7km/h 53% 0.00in /  0mm 83.00 W/m2
20:20 45.6 °F /  7.6 °C 29.4 °F /  -1.4 °C 29.76in /  1007.7hPa South 5.0mph /  8km/h 10.0mph /  16.1km/h 53% 0.00in /  0mm 54.00 W/m2
20:25 45.4 °F /  7.4 °C 29.7 °F /  -1.3 °C 29.76in /  1007.7hPa South 6.0mph /  9.7km/h 10.0mph /  16.1km/h 54% 0.00in /  0mm 46.00 W/m2
20:30 44.9 °F /  7.2 °C 31.4 °F /  -0.3 °C 29.76in /  1007.7hPa South 6.0mph /  9.7km/h 11.0mph /  17.7km/h 59% 0.00in /  0mm 37.00 W/m2
20:35 44.2 °F /  6.8 °C 31.6 °F /  -0.2 °C 29.76in /  1007.7hPa South 5.0mph /  8km/h 11.0mph /  17.7km/h 61% 0.00in /  0mm 23.00 W/m2
20:40 43.5 °F /  6.4 °C 32.1 °F /  0.1 °C 29.76in /  1007.7hPa South 6.0mph /  9.7km/h 11.0mph /  17.7km/h 64% 0.00in /  0mm 19.00 W/m2
20:45 42.8 °F /  6 °C 31.8 °F /  -0.1 °C 29.76in /  1007.7hPa South 8.0mph /  12.9km/h 11.0mph /  17.7km/h 65% 0.00in /  0mm 16.00 W/m2
20:50 42.3 °F /  5.7 °C 31.7 °F /  -0.2 °C 29.76in /  1007.7hPa South 6.0mph /  9.7km/h 11.0mph /  17.7km/h 66% 0.00in /  0mm 12.00 W/m2
20:55 42.0 °F /  5.6 °C 31.8 °F /  -0.1 °C 29.76in /  1007.7hPa South 5.0mph /  8km/h 12.0mph /  19.3km/h 67% 0.00in /  0mm 11.00 W/m2
21:00 41.6 °F /  5.3 °C 31.8 °F /  -0.1 °C 29.77in /  1008hPa SSE 6.0mph /  9.7km/h 12.0mph /  19.3km/h 68% 0.00in /  0mm 9.00 W/m2
21:05 41.3 °F /  5.2 °C 31.9 °F /  -0.1 °C 29.76in /  1007.7hPa SSE 4.0mph /  6.4km/h 10.0mph /  16.1km/h 69% 0.00in /  0mm 5.00 W/m2
21:10 40.6 °F /  4.8 °C 31.2 °F /  -0.4 °C 29.76in /  1007.7hPa SSE 10.0mph /  16.1km/h 10.0mph /  16.1km/h 69% 0.00in /  0mm 0.00 W/m2
21:15 40.0 °F /  4.4 °C 31.4 °F /  -0.3 °C 29.76in /  1007.7hPa SSE 7.0mph /  11.3km/h 11.0mph /  17.7km/h 71% 0.00in /  0mm 0.00 W/m2
21:20 39.5 °F /  4.2 °C 30.9 °F /  -0.6 °C 29.76in /  1007.7hPa SSE 6.0mph /  9.7km/h 11.0mph /  17.7km/h 71% 0.00in /  0mm 0.00 W/m2
21:25 39.0 °F /  3.9 °C 30.7 °F /  -0.7 °C 29.76in /  1007.7hPa South 7.0mph /  11.3km/h 10.0mph /  16.1km/h 72% 0.00in /  0mm 0.00 W/m2
21:30 38.7 °F /  3.7 °C 30.8 °F /  -0.7 °C 29.76in /  1007.7hPa South 7.0mph /  11.3km/h 10.0mph /  16.1km/h 73% 0.00in /  0mm 0.00 W/m2
21:35 38.5 °F /  3.6 °C 30.9 °F /  -0.6 °C 29.76in /  1007.7hPa South 7.0mph /  11.3km/h 9.0mph /  14.5km/h 74% 0.00in /  0mm 0.00 W/m2
21:40 38.6 °F /  3.7 °C 31.0 °F /  -0.6 °C 29.76in /  1007.7hPa South 6.0mph /  9.7km/h 12.0mph /  19.3km/h 74% 0.00in /  0mm 0.00 W/m2
21:45 38.9 °F /  3.8 °C 31.6 °F /  -0.2 °C 29.77in /  1008hPa South 7.0mph /  11.3km/h 15.0mph /  24.1km/h 75% 0.00in /  0mm 0.00 W/m2
21:50 38.9 °F /  3.8 °C 31.6 °F /  -0.2 °C 29.76in /  1007.7hPa SSE 8.0mph /  12.9km/h 15.0mph /  24.1km/h 75% 0.00in /  0mm 0.00 W/m2
21:55 38.6 °F /  3.7 °C 31.7 °F /  -0.2 °C 29.76in /  1007.7hPa South 9.0mph /  14.5km/h 17.0mph /  27.4km/h 76% 0.00in /  0mm 0.00 W/m2
22:00 38.4 °F /  3.6 °C 31.5 °F /  -0.3 °C 29.76in /  1007.7hPa SSE 10.0mph /  16.1km/h 17.0mph /  27.4km/h 76% 0.00in /  0mm 0.00 W/m2
22:05 37.9 °F /  3.3 °C 31.3 °F /  -0.4 °C 29.76in /  1007.7hPa SSE 14.0mph /  22.5km/h 15.0mph /  24.1km/h 77% 0.00in /  0mm 0.00 W/m2
22:10 37.6 °F /  3.1 °C 31.0 °F /  -0.6 °C 29.76in /  1007.7hPa South 11.0mph /  17.7km/h 15.0mph /  24.1km/h 77% 0.00in /  0mm 0.00 W/m2
22:15 37.3 °F /  2.9 °C 31.1 °F /  -0.5 °C 29.76in /  1007.7hPa South 5.0mph /  8km/h 15.0mph /  24.1km/h 78% 0.00in /  0mm 0.00 W/m2
22:20 37.0 °F /  2.8 °C 30.8 °F /  -0.7 °C 29.77in /  1008hPa South 8.0mph /  12.9km/h 14.0mph /  22.5km/h 78% 0.00in /  0mm 0.00 W/m2
22:25 37.0 °F /  2.8 °C 30.8 °F /  -0.7 °C 29.77in /  1008hPa South 6.0mph /  9.7km/h 15.0mph /  24.1km/h 78% 0.00in /  0mm 0.00 W/m2
22:30 36.7 °F /  2.6 °C 30.5 °F /  -0.8 °C 29.77in /  1008hPa South 9.0mph /  14.5km/h 15.0mph /  24.1km/h 78% 0.00in /  0mm 0.00 W/m2
22:35 36.4 °F /  2.4 °C 30.5 °F /  -0.8 °C 29.77in /  1008hPa South 6.0mph /  9.7km/h 14.0mph /  22.5km/h 79% 0.00in /  0mm 0.00 W/m2
22:40 36.2 °F /  2.3 °C 30.3 °F /  -0.9 °C 29.77in /  1008hPa South 7.0mph /  11.3km/h 14.0mph /  22.5km/h 79% 0.00in /  0mm 0.00 W/m2
22:45 36.0 °F /  2.2 °C 30.1 °F /  -1.1 °C 29.77in /  1008hPa SSE 5.0mph /  8km/h 10.0mph /  16.1km/h 79% 0.00in /  0mm 0.00 W/m2
22:50 35.6 °F /  2 °C 29.7 °F /  -1.3 °C 29.77in /  1008hPa SE 4.0mph /  6.4km/h 10.0mph /  16.1km/h 79% 0.00in /  0mm 0.00 W/m2
22:55 35.3 °F /  1.8 °C 29.7 °F /  -1.3 °C 29.77in /  1008hPa SSE 6.0mph /  9.7km/h 10.0mph /  16.1km/h 80% 0.00in /  0mm 0.00 W/m2
23:00 35.0 °F /  1.7 °C 29.5 °F /  -1.4 °C 29.77in /  1008hPa SSE 6.0mph /  9.7km/h 10.0mph /  16.1km/h 80% 0.00in /  0mm 0.00 W/m2
23:05 34.7 °F /  1.5 °C 29.5 °F /  -1.4 °C 29.77in /  1008hPa SSE 2.0mph /  3.2km/h 10.0mph /  16.1km/h 81% 0.00in /  0mm 0.00 W/m2
23:10 34.5 °F /  1.4 °C 29.3 °F /  -1.5 °C 29.77in /  1008hPa South 5.0mph /  8km/h 10.0mph /  16.1km/h 81% 0.00in /  0mm 0.00 W/m2
23:15 34.4 °F /  1.3 °C 29.5 °F /  -1.4 °C 29.77in /  1008hPa SE 5.0mph /  8km/h 7.0mph /  11.3km/h 82% 0.00in /  0mm 0.00 W/m2
23:20 34.2 °F /  1.2 °C 29.3 °F /  -1.5 °C 29.77in /  1008hPa South 4.0mph /  6.4km/h 7.0mph /  11.3km/h 82% 0.00in /  0mm 0.00 W/m2
23:25 34.1 °F /  1.2 °C 29.2 °F /  -1.6 °C 29.77in /  1008hPa South 4.0mph /  6.4km/h 7.0mph /  11.3km/h 82% 0.00in /  0mm 0.00 W/m2
23:30 33.9 °F /  1.1 °C 29.0 °F /  -1.7 °C 29.77in /  1008hPa South 3.0mph /  4.8km/h 6.0mph /  9.7km/h 82% 0.00in /  0mm 0.00 W/m2
23:35 33.9 °F /  1.1 °C 29.3 °F /  -1.5 °C 29.77in /  1008hPa SSW 4.0mph /  6.4km/h 5.0mph /  8km/h 83% 0.00in /  0mm 0.00 W/m2
23:40 33.9 °F /  1.1 °C 29.3 °F /  -1.5 °C 29.77in /  1008hPa South 4.0mph /  6.4km/h 5.0mph /  8km/h 83% 0.00in /  0mm 0.00 W/m2
23:45 33.7 °F /  0.9 °C 29.1 °F /  -1.6 °C 29.77in /  1008hPa South 4.0mph /  6.4km/h 6.0mph /  9.7km/h 83% 0.00in /  0mm 0.00 W/m2
23:50 33.6 °F /  0.9 °C 29.0 °F /  -1.7 °C 29.77in /  1008hPa South 4.0mph /  6.4km/h 6.0mph /  9.7km/h 83% 0.00in /  0mm 0.00 W/m2
23:55 33.5 °F /  0.8 °C 29.2 °F /  -1.6 °C 29.77in /  1008hPa South 5.0mph /  8km/h 7.0mph /  11.3km/h 84% 0.00in /  0mm 0.00 W/m2
Bismarck, North Dakota, USA
Compliments of Weather Underground - 4 mb